Terminal Aerodrome Forecast
Issued by NWS Jacksonville, FL

Home | Current Version | Previous Version | Text Only | Print | Product List | Glossary On
Versions: 1 2 3 4 5 6 7 8 9 10 11 12 13 14 15 16 17 18
675
FTUS42 KJAX 031914 AAA
TAFGNV
TAF AMD
KGNV 031914Z 0319/0418 25012G18KT P6SM FEW015 SCT035 BKN250
     FM032200 24010KT P6SM FEW040 SCT120 BKN250
     FM040300 23005KT P6SM VCSH SCT040 BKN200
     FM041100 27009KT P6SM VCTS FEW015 SCT025CB BKN035
      TEMPO 0411/0415 5SM SHRA SCT015 BKN025
     FM041700 29010KT P6SM SCT025 OVC050=

USA.gov is the U.S. government's official web portal to all federal, state and local government web resources and services.